sensor_id;sensor_type;location;lat;lon;timestamp;pressure;altitude;pressure_sealevel;temperature;humidity
18765;BME280;9511;54.242;12.448;2023-04-04T03:05:04;103002.97;;;-3.51;92.51
18765;BME280;9511;54.242;12.448;2023-04-04T03:07:32;102998.91;;;-3.49;92.19
18765;BME280;9511;54.242;12.448;2023-04-04T03:09:59;103000.22;;;-3.53;92.38
18765;BME280;9511;54.242;12.448;2023-04-04T03:12:26;103006.47;;;-3.51;92.67
18765;BME280;9511;54.242;12.448;2023-04-04T03:14:54;102997.63;;;-3.53;91.89
18765;BME280;9511;54.242;12.448;2023-04-04T03:17:21;103000.38;;;-3.51;92.65
18765;BME280;9511;54.242;12.448;2023-04-04T03:19:49;102994.28;;;-3.52;92.50
18765;BME280;9511;54.242;12.448;2023-04-04T03:22:17;103006.88;;;-3.55;91.92
18765;BME280;9511;54.242;12.448;2023-04-04T03:24:45;103002.84;;;-3.60;91.78
18765;BME280;9511;54.242;12.448;2023-04-04T03:27:12;103001.38;;;-3.65;91.77
18765;BME280;9511;54.242;12.448;2023-04-04T03:29:40;103007.84;;;-3.68;91.96
18765;BME280;9511;54.242;12.448;2023-04-04T03:32:08;103005.44;;;-3.67;92.74
18765;BME280;9511;54.242;12.448;2023-04-04T03:34:35;103007.81;;;-3.61;92.62
18765;BME280;9511;54.242;12.448;2023-04-04T03:37:02;103010.22;;;-3.63;92.90
18765;BME280;9511;54.242;12.448;2023-04-04T03:39:31;102994.88;;;-3.61;92.45
18765;BME280;9511;54.242;12.448;2023-04-04T03:41:58;102995.81;;;-3.61;92.69
18765;BME280;9511;54.242;12.448;2023-04-04T03:44:26;102985.06;;;-3.57;92.64
18765;BME280;9511;54.242;12.448;2023-04-04T03:46:53;102995.03;;;-3.53;92.45
18765;BME280;9511;54.242;12.448;2023-04-04T03:49:22;102991.72;;;-3.52;92.68
18765;BME280;9511;54.242;12.448;2023-04-04T03:51:49;102983.19;;;-3.51;92.83
18765;BME280;9511;54.242;12.448;2023-04-04T03:54:16;102984.13;;;-3.50;93.22
18765;BME280;9511;54.242;12.448;2023-04-04T03:56:45;102982.47;;;-3.50;92.68
18765;BME280;9511;54.242;12.448;2023-04-04T03:59:13;102983.78;;;-3.53;92.80
18765;BME280;9511;54.242;12.448;2023-04-04T04:01:40;102985.81;;;-3.58;92.80
18765;BME280;9511;54.242;12.448;2023-04-04T04:04:08;102984.31;;;-3.56;92.91
18765;BME280;9511;54.242;12.448;2023-04-04T04:06:35;102982.91;;;-3.61;92.64
18765;BME280;9511;54.242;12.448;2023-04-04T04:09:02;102989.94;;;-3.67;92.65
18765;BME280;9511;54.242;12.448;2023-04-04T04:11:30;102980.50;;;-3.74;92.58
18765;BME280;9511;54.242;12.448;2023-04-04T04:14:00;102983.66;;;-3.76;92.64
18765;BME280;9511;54.242;12.448;2023-04-04T04:16:29;102980.16;;;-3.77;92.18
18765;BME280;9511;54.242;12.448;2023-04-04T04:18:58;102979.63;;;-3.81;92.41
18765;BME280;9511;54.242;12.448;2023-04-04T04:21:35;102975.75;;;-3.85;91.76
18765;BME280;9511;54.242;12.448;2023-04-04T04:24:02;102977.59;;;-3.84;92.06
18765;BME280;9511;54.242;12.448;2023-04-04T04:26:29;102979.63;;;-3.81;92.47
18765;BME280;9511;54.242;12.448;2023-04-04T04:28:57;102975.03;;;-3.84;92.34
18765;BME280;9511;54.242;12.448;2023-04-04T04:31:31;102981.13;;;-3.83;91.98
18765;BME280;9511;54.242;12.448;2023-04-04T04:33:58;102976.47;;;-3.86;92.00
18765;BME280;9511;54.242;12.448;2023-04-04T04:36:29;102971.13;;;-3.87;92.08
18765;BME280;9511;54.242;12.448;2023-04-04T04:39:12;102974.31;;;-3.90;92.71
18765;BME280;9511;54.242;12.448;2023-04-04T04:41:50;102972.97;;;-3.86;93.35
18765;BME280;9511;54.242;12.448;2023-04-04T04:44:17;102968.19;;;-3.83;92.32
18765;BME280;9511;54.242;12.448;2023-04-04T04:46:47;102967.44;;;-3.82;92.75
18765;BME280;9511;54.242;12.448;2023-04-04T04:49:17;102971.47;;;-3.84;92.66
18765;BME280;9511;54.242;12.448;2023-04-04T04:51:45;102963.34;;;-3.80;93.43
18765;BME280;9511;54.242;12.448;2023-04-04T04:54:15;102966.47;;;-3.68;92.60
18765;BME280;9511;54.242;12.448;2023-04-04T04:56:44;102962.56;;;-3.65;92.96
18765;BME280;9511;54.242;12.448;2023-04-04T04:59:11;102966.97;;;-3.57;92.90
18765;BME280;9511;54.242;12.448;2023-04-04T05:01:43;102959.03;;;-3.58;93.15
18765;BME280;9511;54.242;12.448;2023-04-04T05:04:11;102958.47;;;-3.56;93.34
18765;BME280;9511;54.242;12.448;2023-04-04T05:06:48;102960.66;;;-3.52;92.83
18765;BME280;9511;54.242;12.448;2023-04-04T05:09:16;102958.44;;;-3.49;92.50
18765;BME280;9511;54.242;12.448;2023-04-04T05:11:43;102960.25;;;-3.40;92.64
18765;BME280;9511;54.242;12.448;2023-04-04T05:14:12;102961.31;;;-3.31;93.35
18765;BME280;9511;54.242;12.448;2023-04-04T05:16:46;102952.22;;;-3.28;93.02
18765;BME280;9511;54.242;12.448;2023-04-04T05:19:15;102956.63;;;-3.19;93.00
18765;BME280;9511;54.242;12.448;2023-04-04T05:21:47;102954.59;;;-3.15;92.51
18765;BME280;9511;54.242;12.448;2023-04-04T05:24:26;102956.59;;;-3.12;92.39
18765;BME280;9511;54.242;12.448;2023-04-04T05:26:53;102951.19;;;-3.07;92.79
18765;BME280;9511;54.242;12.448;2023-04-04T05:29:21;102950.22;;;-3.00;91.94
18765;BME280;9511;54.242;12.448;2023-04-04T05:31:48;102948.78;;;-2.82;92.58
18765;BME280;9511;54.242;12.448;2023-04-04T05:34:20;102953.13;;;-2.67;92.64
18765;BME280;9511;54.242;12.448;2023-04-04T05:36:50;102951.59;;;-2.58;92.29
18765;BME280;9511;54.242;12.448;2023-04-04T05:39:18;102959.59;;;-2.41;92.08
18765;BME280;9511;54.242;12.448;2023-04-04T05:41:57;102965.91;;;-2.23;91.97
18765;BME280;9511;54.242;12.448;2023-04-04T05:44:25;102958.59;;;-2.18;91.70
18765;BME280;9511;54.242;12.448;2023-04-04T05:46:52;102954.84;;;-2.13;91.37
18765;BME280;9511;54.242;12.448;2023-04-04T05:49:22;102954.81;;;-2.06;91.62
18765;BME280;9511;54.242;12.448;2023-04-04T05:51:55;102948.28;;;-1.87;91.52
18765;BME280;9511;54.242;12.448;2023-04-04T05:54:24;102943.66;;;-1.73;91.46
18765;BME280;9511;54.242;12.448;2023-04-04T05:56:52;102943.34;;;-1.61;90.97
18765;BME280;9511;54.242;12.448;2023-04-04T05:59:37;102942.34;;;-1.54;90.94
18765;BME280;9511;54.242;12.448;2023-04-04T06:02:07;102936.19;;;-1.39;91.09
18765;BME280;9511;54.242;12.448;2023-04-04T06:04:40;102930.81;;;-1.24;90.91
18765;BME280;9511;54.242;12.448;2023-04-04T06:07:11;102933.16;;;-1.19;90.11
18765;BME280;9511;54.242;12.448;2023-04-04T06:09:38;102933.41;;;-1.00;90.51
18765;BME280;9511;54.242;12.448;2023-04-04T06:12:06;102932.25;;;-0.86;90.59
18765;BME280;9511;54.242;12.448;2023-04-04T06:14:35;102919.22;;;-0.70;90.28
18765;BME280;9511;54.242;12.448;2023-04-04T06:17:04;102929.88;;;-0.51;89.01
18765;BME280;9511;54.242;12.448;2023-04-04T06:19:32;102926.22;;;-0.36;88.96
18765;BME280;9511;54.242;12.448;2023-04-04T06:22:00;102918.00;;;-0.23;88.60
18765;BME280;9511;54.242;12.448;2023-04-04T06:24:31;102921.91;;;-0.11;88.61
18765;BME280;9511;54.242;12.448;2023-04-04T06:26:58;102912.13;;;0.04;87.50
18765;BME280;9511;54.242;12.448;2023-04-04T06:29:27;102911.66;;;0.16;87.56
18765;BME280;9511;54.242;12.448;2023-04-04T06:31:57;102915.22;;;0.25;86.79
18765;BME280;9511;54.242;12.448;2023-04-04T06:34:34;102904.19;;;0.37;86.10
18765;BME280;9511;54.242;12.448;2023-04-04T06:37:02;102904.50;;;0.48;86.32
18765;BME280;9511;54.242;12.448;2023-04-04T06:39:36;102910.34;;;0.63;85.12
18765;BME280;9511;54.242;12.448;2023-04-04T06:42:08;102908.63;;;0.72;85.02
18765;BME280;9511;54.242;12.448;2023-04-04T06:44:37;102906.63;;;0.87;84.71
18765;BME280;9511;54.242;12.448;2023-04-04T06:47:05;102915.31;;;1.05;84.50
18765;BME280;9511;54.242;12.448;2023-04-04T06:49:32;102904.06;;;1.23;84.34
18765;BME280;9511;54.242;12.448;2023-04-04T06:52:00;102907.97;;;1.37;83.54
18765;BME280;9511;54.242;12.448;2023-04-04T06:54:28;102897.97;;;1.50;83.01
18765;BME280;9511;54.242;12.448;2023-04-04T06:56:56;102899.72;;;1.69;82.62
18765;BME280;9511;54.242;12.448;2023-04-04T06:59:23;102900.41;;;1.85;82.05
18765;BME280;9511;54.242;12.448;2023-04-04T07:01:50;102889.22;;;2.05;81.68
18765;BME280;9511;54.242;12.448;2023-04-04T07:04:17;102890.91;;;2.23;81.18
18765;BME280;9511;54.242;12.448;2023-04-04T07:06:45;102888.69;;;2.36;80.57
18765;BME280;9511;54.242;12.448;2023-04-04T07:09:12;102881.19;;;2.50;78.52
18765;BME280;9511;54.242;12.448;2023-04-04T07:11:41;102879.19;;;2.66;76.72
18765;BME280;9511;54.242;12.448;2023-04-04T07:14:08;102883.03;;;2.80;75.16
18765;BME280;9511;54.242;12.448;2023-04-04T07:16:35;102879.16;;;2.85;73.25
18765;BME280;9511;54.242;12.448;2023-04-04T07:19:03;102887.69;;;2.92;71.74
18765;BME280;9511;54.242;12.448;2023-04-04T07:21:30;102877.13;;;3.01;70.61
18765;BME280;9511;54.242;12.448;2023-04-04T07:23:58;102885.91;;;3.02;69.75
18765;BME280;9511;54.242;12.448;2023-04-04T07:26:27;102881.22;;;3.08;68.55
18765;BME280;9511;54.242;12.448;2023-04-04T07:28:55;102882.28;;;3.20;67.15
18765;BME280;9511;54.242;12.448;2023-04-04T07:31:23;102875.53;;;3.22;66.07
18765;BME280;9511;54.242;12.448;2023-04-04T07:33:51;102883.66;;;3.35;65.86
18765;BME280;9511;54.242;12.448;2023-04-04T07:36:19;102876.72;;;3.36;64.67
18765;BME280;9511;54.242;12.448;2023-04-04T07:38:46;102875.16;;;3.38;64.43
18765;BME280;9511;54.242;12.448;2023-04-04T07:41:14;102871.53;;;3.46;64.79
18765;BME280;9511;54.242;12.448;2023-04-04T07:43:42;102863.91;;;3.49;65.65
18765;BME280;9511;54.242;12.448;2023-04-04T07:46:10;102869.84;;;3.57;66.35
18765;BME280;9511;54.242;12.448;2023-04-04T07:48:38;102871.91;;;3.61;66.88
18765;BME280;9511;54.242;12.448;2023-04-04T07:51:05;102872.47;;;3.57;67.34
18765;BME280;9511;54.242;12.448;2023-04-04T07:53:32;102871.94;;;3.71;68.20
18765;BME280;9511;54.242;12.448;2023-04-04T07:55:59;102878.63;;;3.67;67.66
18765;BME280;9511;54.242;12.448;2023-04-04T07:58:31;102870.41;;;3.73;67.87
18765;BME280;9511;54.242;12.448;2023-04-04T08:00:58;102867.13;;;3.86;68.55
18765;BME280;9511;54.242;12.448;2023-04-04T08:03:27;102866.22;;;3.85;68.18
18765;BME280;9511;54.242;12.448;2023-04-04T08:05:55;102863.72;;;3.97;68.67
18765;BME280;9511;54.242;12.448;2023-04-04T08:08:22;102867.50;;;4.00;67.58
18765;BME280;9511;54.242;12.448;2023-04-04T08:10:50;102865.66;;;3.99;65.66
18765;BME280;9511;54.242;12.448;2023-04-04T08:13:17;102869.09;;;4.09;65.53
18765;BME280;9511;54.242;12.448;2023-04-04T08:15:44;102860.16;;;4.07;65.64
18765;BME280;9511;54.242;12.448;2023-04-04T08:18:12;102861.19;;;4.29;66.16
18765;BME280;9511;54.242;12.448;2023-04-04T08:20:40;102858.09;;;4.03;66.26
18765;BME280;9511;54.242;12.448;2023-04-04T08:23:08;102855.31;;;4.01;66.68
18765;BME280;9511;54.242;12.448;2023-04-04T08:25:35;102852.44;;;3.88;66.92
18765;BME280;9511;54.242;12.448;2023-04-04T08:28:03;102848.38;;;3.71;67.37
18765;BME280;9511;54.242;12.448;2023-04-04T08:30:30;102862.53;;;3.73;68.39
18765;BME280;9511;54.242;12.448;2023-04-04T08:32:57;102858.09;;;3.82;68.91
18765;BME280;9511;54.242;12.448;2023-04-04T08:35:25;102851.78;;;4.11;68.83
18765;BME280;9511;54.242;12.448;2023-04-04T08:37:53;102855.03;;;4.39;69.03
18765;BME280;9511;54.242;12.448;2023-04-04T08:40:20;102858.03;;;4.43;69.12
18765;BME280;9511;54.242;12.448;2023-04-04T08:42:50;102859.44;;;4.50;69.27
18765;BME280;9511;54.242;12.448;2023-04-04T08:45:18;102852.47;;;4.61;69.22
18765;BME280;9511;54.242;12.448;2023-04-04T08:47:47;102851.25;;;4.77;69.70
18765;BME280;9511;54.242;12.448;2023-04-04T08:50:15;102844.19;;;4.98;69.72
18765;BME280;9511;54.242;12.448;2023-04-04T08:52:44;102851.31;;;4.99;69.01
18765;BME280;9511;54.242;12.448;2023-04-04T08:55:13;102852.28;;;5.12;68.98
18765;BME280;9511;54.242;12.448;2023-04-04T08:57:41;102839.94;;;5.32;69.01
18765;BME280;9511;54.242;12.448;2023-04-04T09:00:09;102841.75;;;5.22;68.81
18765;BME280;9511;54.242;12.448;2023-04-04T09:02:40;102837.63;;;5.03;69.62
18765;BME280;9511;54.242;12.448;2023-04-04T09:05:09;102842.78;;;5.24;70.25
18765;BME280;9511;54.242;12.448;2023-04-04T09:07:39;102838.66;;;5.49;71.02
18765;BME280;9511;54.242;12.448;2023-04-04T09:10:08;102826.75;;;5.65;70.64
18765;BME280;9511;54.242;12.448;2023-04-04T09:12:39;102840.72;;;5.75;69.77
18765;BME280;9511;54.242;12.448;2023-04-04T09:15:08;102833.66;;;5.52;69.22
18765;BME280;9511;54.242;12.448;2023-04-04T09:17:36;102829.75;;;5.47;68.95
18765;BME280;9511;54.242;12.448;2023-04-04T09:20:36;102847.00;;;5.22;68.71
18765;BME280;9511;54.242;12.448;2023-04-04T09:23:06;102815.66;;;5.13;69.08
18765;BME280;9511;54.242;12.448;2023-04-04T09:25:35;102819.16;;;5.24;69.49
18765;BME280;9511;54.242;12.448;2023-04-04T09:28:04;102833.97;;;5.23;69.66
18765;BME280;9511;54.242;12.448;2023-04-04T09:30:32;102827.13;;;5.25;69.77
18765;BME280;9511;54.242;12.448;2023-04-04T09:33:02;102838.91;;;5.09;69.85
18765;BME280;9511;54.242;12.448;2023-04-04T09:35:32;102842.44;;;5.09;70.56
18765;BME280;9511;54.242;12.448;2023-04-04T09:38:00;102838.31;;;5.23;70.86
18765;BME280;9511;54.242;12.448;2023-04-04T09:40:28;102831.31;;;5.12;70.73
18765;BME280;9511;54.242;12.448;2023-04-04T09:42:59;102835.44;;;5.20;70.99
18765;BME280;9511;54.242;12.448;2023-04-04T09:45:29;102842.13;;;5.38;71.20
18765;BME280;9511;54.242;12.448;2023-04-04T09:47:56;102831.09;;;5.42;71.30
18765;BME280;9511;54.242;12.448;2023-04-04T09:50:24;102828.25;;;5.73;71.26
18765;BME280;9511;54.242;12.448;2023-04-04T09:52:55;102825.78;;;5.86;70.08
18765;BME280;9511;54.242;12.448;2023-04-04T09:55:30;102828.97;;;5.82;69.76
18765;BME280;9511;54.242;12.448;2023-04-04T09:57:58;102830.75;;;5.71;70.37
18765;BME280;9511;54.242;12.448;2023-04-04T10:00:28;102825.19;;;6.24;70.01
18765;BME280;9511;54.242;12.448;2023-04-04T10:03:01;102823.16;;;6.67;69.30
18765;BME280;9511;54.242;12.448;2023-04-04T10:05:28;102826.91;;;6.35;68.81
18765;BME280;9511;54.242;12.448;2023-04-04T10:07:56;102832.84;;;6.09;68.18
18765;BME280;9511;54.242;12.448;2023-04-04T10:10:26;102821.53;;;6.22;69.46
18765;BME280;9511;54.242;12.448;2023-04-04T10:12:56;102830.81;;;6.40;69.54
18765;BME280;9511;54.242;12.448;2023-04-04T10:15:23;102823.47;;;6.36;68.98
18765;BME280;9511;54.242;12.448;2023-04-04T10:18:02;102823.16;;;6.43;68.45
18765;BME280;9511;54.242;12.448;2023-04-04T10:20:31;102818.56;;;6.52;68.22
18765;BME280;9511;54.242;12.448;2023-04-04T10:22:59;102814.88;;;6.85;68.27
18765;BME280;9511;54.242;12.448;2023-04-04T10:25:27;102808.97;;;6.64;67.69
18765;BME280;9511;54.242;12.448;2023-04-04T10:27:55;102812.97;;;6.83;68.59
18765;BME280;9511;54.242;12.448;2023-04-04T10:30:23;102810.09;;;6.80;67.39
18765;BME280;9511;54.242;12.448;2023-04-04T10:32:57;102801.88;;;6.63;67.66
18765;BME280;9511;54.242;12.448;2023-04-04T10:35:30;102799.72;;;6.46;68.39
18765;BME280;9511;54.242;12.448;2023-04-04T10:37:58;102787.03;;;6.41;68.88
18765;BME280;9511;54.242;12.448;2023-04-04T10:40:29;102790.91;;;6.57;68.67
18765;BME280;9511;54.242;12.448;2023-04-04T10:43:01;102790.91;;;6.57;68.44
18765;BME280;9511;54.242;12.448;2023-04-04T10:45:30;102788.13;;;6.91;68.46
18765;BME280;9511;54.242;12.448;2023-04-04T10:47:57;102789.03;;;6.91;67.93
18765;BME280;9511;54.242;12.448;2023-04-04T10:50:25;102784.25;;;6.74;63.59
18765;BME280;9511;54.242;12.448;2023-04-04T10:52:54;102784.47;;;6.89;62.77
18765;BME280;9511;54.242;12.448;2023-04-04T10:55:25;102782.97;;;6.81;61.84
18765;BME280;9511;54.242;12.448;2023-04-04T10:57:52;102774.38;;;6.95;61.43
18765;BME280;9511;54.242;12.448;2023-04-04T11:00:21;102779.81;;;7.10;60.28
18765;BME280;9511;54.242;12.448;2023-04-04T11:02:53;102773.00;;;7.00;59.66
18765;BME280;9511;54.242;12.448;2023-04-04T11:05:23;102772.75;;;6.97;60.47
18765;BME280;9511;54.242;12.448;2023-04-04T11:07:55;102772.72;;;7.09;60.81
18765;BME280;9511;54.242;12.448;2023-04-04T11:10:25;102770.72;;;6.93;61.36
18765;BME280;9511;54.242;12.448;2023-04-04T11:13:00;102762.06;;;7.44;61.60
18765;BME280;9511;54.242;12.448;2023-04-04T11:15:44;102763.59;;;7.54;59.91
18765;BME280;9511;54.242;12.448;2023-04-04T11:18:12;102758.44;;;7.55;59.41
18765;BME280;9511;54.242;12.448;2023-04-04T11:20:41;102761.28;;;7.33;59.14
18765;BME280;9511;54.242;12.448;2023-04-04T11:23:16;102762.28;;;7.47;59.09
18765;BME280;9511;54.242;12.448;2023-04-04T11:25:49;102753.16;;;7.80;58.48
18765;BME280;9511;54.242;12.448;2023-04-04T11:28:44;102752.72;;;8.39;58.67
18765;BME280;9511;54.242;12.448;2023-04-04T11:31:23;102749.25;;;8.66;57.83
18765;BME280;9511;54.242;12.448;2023-04-04T11:33:55;102743.41;;;8.44;56.10
18765;BME280;9511;54.242;12.448;2023-04-04T11:36:24;102742.81;;;8.89;55.51
18765;BME280;9511;54.242;12.448;2023-04-04T11:39:15;102747.50;;;8.80;54.97
18765;BME280;9511;54.242;12.448;2023-04-04T11:41:48;102744.25;;;8.84;54.03
18765;BME280;9511;54.242;12.448;2023-04-04T11:44:16;102740.13;;;9.02;54.07
18765;BME280;9511;54.242;12.448;2023-04-04T11:46:44;102731.25;;;9.15;53.98
18765;BME280;9511;54.242;12.448;2023-04-04T11:49:12;102725.25;;;8.90;54.94
18765;BME280;9511;54.242;12.448;2023-04-04T11:51:39;102725.94;;;9.43;56.05
18765;BME280;9511;54.242;12.448;2023-04-04T11:54:13;102731.38;;;9.31;53.34
18765;BME280;9511;54.242;12.448;2023-04-04T11:56:41;102731.00;;;8.56;52.19
18765;BME280;9511;54.242;12.448;2023-04-04T11:59:10;102724.09;;;8.32;52.99
18765;BME280;9511;54.242;12.448;2023-04-04T12:01:37;102729.97;;;8.28;54.24
18765;BME280;9511;54.242;12.448;2023-04-04T12:04:05;102725.53;;;8.27;55.21
18765;BME280;9511;54.242;12.448;2023-04-04T12:06:33;102715.38;;;7.93;55.69
18765;BME280;9511;54.242;12.448;2023-04-04T12:09:03;102724.63;;;7.61;56.46
18765;BME280;9511;54.242;12.448;2023-04-04T12:11:33;102720.50;;;7.65;56.00
18765;BME280;9511;54.242;12.448;2023-04-04T12:14:00;102725.69;;;7.77;55.87
18765;BME280;9511;54.242;12.448;2023-04-04T12:16:28;102722.34;;;8.19;56.19
18765;BME280;9511;54.242;12.448;2023-04-04T12:18:56;102723.72;;;8.39;53.75
18765;BME280;9511;54.242;12.448;2023-04-04T12:21:23;102719.97;;;8.76;53.91
18765;BME280;9511;54.242;12.448;2023-04-04T12:23:50;102714.44;;;9.00;54.57
18765;BME280;9511;54.242;12.448;2023-04-04T12:26:17;102708.13;;;8.70;52.37
18765;BME280;9511;54.242;12.448;2023-04-04T12:28:47;102715.34;;;8.59;53.05
18765;BME280;9511;54.242;12.448;2023-04-04T12:31:14;102704.66;;;8.84;53.31
18765;BME280;9511;54.242;12.448;2023-04-04T12:33:42;102710.69;;;9.24;51.76
18765;BME280;9511;54.242;12.448;2023-04-04T12:36:11;102699.44;;;9.42;51.47
18765;BME280;9511;54.242;12.448;2023-04-04T12:38:54;102699.44;;;9.86;51.29
18765;BME280;9511;54.242;12.448;2023-04-04T12:41:23;102697.28;;;9.21;51.47
18765;BME280;9511;54.242;12.448;2023-04-04T12:43:51;102687.63;;;8.79;53.09
18765;BME280;9511;54.242;12.448;2023-04-04T12:46:25;102685.44;;;8.87;53.56
18765;BME280;9511;54.242;12.448;2023-04-04T12:48:54;102692.03;;;8.52;54.49
18765;BME280;9511;54.242;12.448;2023-04-04T12:51:29;102691.22;;;8.53;54.66
18765;BME280;9511;54.242;12.448;2023-04-04T12:53:57;102691.03;;;8.37;54.36
18765;BME280;9511;54.242;12.448;2023-04-04T12:56:25;102683.94;;;8.36;55.17
18765;BME280;9511;54.242;12.448;2023-04-04T12:58:59;102687.59;;;8.11;54.12
18765;BME280;9511;54.242;12.448;2023-04-04T13:01:26;102683.75;;;8.46;54.20
18765;BME280;9511;54.242;12.448;2023-04-04T13:03:54;102679.94;;;8.97;52.57
18765;BME280;9511;54.242;12.448;2023-04-04T13:06:21;102680.13;;;9.43;52.16
18765;BME280;9511;54.242;12.448;2023-04-04T13:08:49;102678.56;;;9.61;51.66
18765;BME280;9511;54.242;12.448;2023-04-04T13:11:17;102676.38;;;9.69;51.08
18765;BME280;9511;54.242;12.448;2023-04-04T13:13:45;102672.94;;;8.97;50.18
18765;BME280;9511;54.242;12.448;2023-04-04T13:16:28;102677.56;;;8.45;50.94
18765;BME280;9511;54.242;12.448;2023-04-04T13:18:56;102676.03;;;8.77;52.16
18765;BME280;9511;54.242;12.448;2023-04-04T13:21:24;102668.31;;;9.08;51.63
18765;BME280;9511;54.242;12.448;2023-04-04T13:23:52;102664.00;;;9.23;51.00
18765;BME280;9511;54.242;12.448;2023-04-04T13:26:19;102669.34;;;9.40;50.98
18765;BME280;9511;54.242;12.448;2023-04-04T13:28:47;102662.06;;;9.50;50.17
18765;BME280;9511;54.242;12.448;2023-04-04T13:31:16;102660.09;;;9.46;49.60
18765;BME280;9511;54.242;12.448;2023-04-04T13:33:43;102654.50;;;9.12;49.52
18765;BME280;9511;54.242;12.448;2023-04-04T13:36:10;102648.88;;;9.36;49.31
18765;BME280;9511;54.242;12.448;2023-04-04T13:38:39;102649.66;;;9.35;49.13
18765;BME280;9511;54.242;12.448;2023-04-04T13:41:06;102641.81;;;9.95;49.47
18765;BME280;9511;54.242;12.448;2023-04-04T13:43:33;102648.44;;;10.49;47.54
18765;BME280;9511;54.242;12.448;2023-04-04T13:46:01;102639.28;;;10.59;47.27
18765;BME280;9511;54.242;12.448;2023-04-04T13:48:29;102637.66;;;9.84;46.51
18765;BME280;9511;54.242;12.448;2023-04-04T13:50:56;102635.63;;;9.80;45.79
18765;BME280;9511;54.242;12.448;2023-04-04T13:53:24;102634.09;;;9.83;44.77
18765;BME280;9511;54.242;12.448;2023-04-04T13:55:51;102632.41;;;9.69;46.54
18765;BME280;9511;54.242;12.448;2023-04-04T13:58:18;102628.72;;;9.23;47.67
18765;BME280;9511;54.242;12.448;2023-04-04T14:00:46;102628.84;;;8.82;47.68
18765;BME280;9511;54.242;12.448;2023-04-04T14:03:14;102617.28;;;8.51;49.18
18765;BME280;9511;54.242;12.448;2023-04-04T14:05:43;102621.41;;;8.89;51.03
18765;BME280;9511;54.242;12.448;2023-04-04T14:08:11;102631.19;;;9.49;52.26
18765;BME280;9511;54.242;12.448;2023-04-04T14:10:39;102627.72;;;9.50;51.22
18765;BME280;9511;54.242;12.448;2023-04-04T14:13:06;102621.81;;;9.69;50.81
18765;BME280;9511;54.242;12.448;2023-04-04T14:15:33;102614.81;;;10.01;50.35
18765;BME280;9511;54.242;12.448;2023-04-04T14:18:01;102625.53;;;10.19;48.95
18765;BME280;9511;54.242;12.448;2023-04-04T14:20:28;102626.09;;;10.28;47.27
18765;BME280;9511;54.242;12.448;2023-04-04T14:22:57;102622.69;;;10.61;48.31
18765;BME280;9511;54.242;12.448;2023-04-04T14:25:24;102618.75;;;10.55;48.83
18765;BME280;9511;54.242;12.448;2023-04-04T14:27:51;102619.47;;;10.05;49.24
18765;BME280;9511;54.242;12.448;2023-04-04T14:30:18;102622.34;;;10.55;49.70
18765;BME280;9511;54.242;12.448;2023-04-04T14:32:46;102616.13;;;10.55;49.27
18765;BME280;9511;54.242;12.448;2023-04-04T14:35:14;102603.38;;;10.48;48.83
18765;BME280;9511;54.242;12.448;2023-04-04T14:37:42;102603.00;;;10.56;48.58
18765;BME280;9511;54.242;12.448;2023-04-04T14:40:11;102603.97;;;10.58;48.70
18765;BME280;9511;54.242;12.448;2023-04-04T14:42:38;102598.94;;;10.96;49.23
18765;BME280;9511;54.242;12.448;2023-04-04T14:45:07;102598.72;;;11.25;49.06
18765;BME280;9511;54.242;12.448;2023-04-04T14:47:37;102594.50;;;11.12;49.74
18765;BME280;9511;54.242;12.448;2023-04-04T14:50:05;102599.09;;;10.82;49.27
18765;BME280;9511;54.242;12.448;2023-04-04T14:52:33;102603.72;;;11.03;49.38
18765;BME280;9511;54.242;12.448;2023-04-04T14:55:01;102599.50;;;10.57;49.34
18765;BME280;9511;54.242;12.448;2023-04-04T14:57:29;102587.94;;;11.22;48.90
18765;BME280;9511;54.242;12.448;2023-04-04T14:59:57;102596.91;;;11.24;49.71
18765;BME280;9511;54.242;12.448;2023-04-04T15:02:24;102596.09;;;10.60;50.58
18765;BME280;9511;54.242;12.448;2023-04-04T15:04:51;102586.16;;;10.88;50.84
18765;BME280;9511;54.242;12.448;2023-04-04T15:07:19;102589.72;;;10.89;50.13
18765;BME280;9511;54.242;12.448;2023-04-04T15:09:49;102592.78;;;10.48;51.53
18765;BME280;9511;54.242;12.448;2023-04-04T15:12:16;102584.50;;;11.07;50.77
18765;BME280;9511;54.242;12.448;2023-04-04T15:14:44;102584.88;;;10.64;50.55
18765;BME280;9511;54.242;12.448;2023-04-04T15:17:12;102589.63;;;11.20;50.27
18765;BME280;9511;54.242;12.448;2023-04-04T15:19:39;102585.16;;;11.19;50.13
18765;BME280;9511;54.242;12.448;2023-04-04T15:22:07;102582.22;;;11.31;49.24
18765;BME280;9511;54.242;12.448;2023-04-04T15:24:34;102578.09;;;10.85;49.70
18765;BME280;9511;54.242;12.448;2023-04-04T15:27:01;102574.41;;;10.83;50.33
18765;BME280;9511;54.242;12.448;2023-04-04T15:29:29;102574.59;;;11.03;49.62
18765;BME280;9511;54.242;12.448;2023-04-04T15:31:57;102573.28;;;10.46;50.38
18765;BME280;9511;54.242;12.448;2023-04-04T15:34:24;102567.25;;;10.64;51.10
18765;BME280;9511;54.242;12.448;2023-04-04T15:36:52;102565.09;;;10.41;51.05
18765;BME280;9511;54.242;12.448;2023-04-04T15:39:20;102564.28;;;10.11;50.06
18765;BME280;9511;54.242;12.448;2023-04-04T15:41:47;102563.91;;;9.89;51.19
18765;BME280;9511;54.242;12.448;2023-04-04T15:44:14;102555.88;;;10.18;51.03
18765;BME280;9511;54.242;12.448;2023-04-04T15:46:42;102552.72;;;10.56;50.03
18765;BME280;9511;54.242;12.448;2023-04-04T15:49:11;102556.69;;;11.15;48.12
18765;BME280;9511;54.242;12.448;2023-04-04T15:51:38;102548.44;;;11.80;47.45
18765;BME280;9511;54.242;12.448;2023-04-04T15:54:08;102558.97;;;12.14;46.75
18765;BME280;9511;54.242;12.448;2023-04-04T15:56:35;102545.47;;;13.26;45.84
18765;BME280;9511;54.242;12.448;2023-04-04T15:59:03;102550.09;;;12.14;45.11
18765;BME280;9511;54.242;12.448;2023-04-04T16:01:31;102535.09;;;13.13;43.95
18765;BME280;9511;54.242;12.448;2023-04-04T16:03:58;102542.06;;;12.69;43.76
18765;BME280;9511;54.242;12.448;2023-04-04T16:06:27;102537.38;;;11.87;45.35
18765;BME280;9511;54.242;12.448;2023-04-04T16:08:56;102542.50;;;10.31;47.91